RAR weather

Rarotonga International Airport
Avarua, Cook Islands

Public forecast

Using degrees Celsius for public forecast. Weather courtesy of forecast.io.

METAR (pilot weather report)

Retrieved 2019/05/21 00:30 UTC (0 seconds ago):

NCRG 210030Z AUTO 02003KT 9999 BKN020/// BKN034/// BKN041/// 25/21 Q1015

TAF (pilot weather forecast)

Forecast is more than 12 hours old.

Retrieved 2019/05/20 00:00 UTC (1 day ago):

TAF NCRG 202316Z 2100/2124 11005KT 9999 -SHRA BKN020 BKN040 PROB30 TEMPO 2118/2124 5000 SHRA BKN015